Portada
METAR-TAF:

METAR-TAF

Aeroports :

Changsha, Xina

latitud: 28-11N, longitud: 113-13E, altitud: 66 m

Observació

L'informe es va fer fa 1 hora i 0 minuts, a les 10:00 UTC
Vent 10 kt del Nord-Oest
Temperatura 17°C
Humitat 59%
Pressió 1022 hPa
Visibilitat 10 km o més
sense núvols per sota de 1500 mi sense presència de cumulonimbus.

METAR: ZGHA 211000Z 32005MPS CAVOK 17/09 Q1022 NOSIG

Hora: 19:00 (11:00 UTC)

Pronòstic

L'informe es va fer fa 8 hores i 30 minuts, a les 02:30 UTC
Pronòstic vàlid del 21 a les 06 UTC al 22 a les 06 UTC
Vent 8 kt del Nord
Visibilitat: 6000 m

TAF: ZGHA 210230Z 2106/2206 01004MPS 6000 NSC TX18/2107Z TN10/2122Z

Observacions i pronòstics meteorològics de més de 4000 aeroports (METAR i TAF).

Les estacions disponibles són els punts grocs i vermells al mapa.

Posi el ratolí al punt desitjat per veure el nom de l'estació.

Feu clic per veure les observacions i els pronòstics meteorològics.

Per canviar el mapa: feu clic els botons verds amb una creu de color negre per apropar; al botó verd amb un guió per allunyar la imatge; o en les fletxes verdes per a mapes adjacents.


METAR-TAF: